sensor_id;sensor_type;location;lat;lon;timestamp;P1;durP1;ratioP1;P2;durP2;ratioP2
8564;SDS011;4320;51.498;6.556;2023-01-19T00:01:23;16.97;;;9.80;;
8564;SDS011;4320;51.498;6.556;2023-01-19T00:03:49;14.47;;;10.10;;
8564;SDS011;4320;51.498;6.556;2023-01-19T00:06:15;15.63;;;10.13;;
8564;SDS011;4320;51.498;6.556;2023-01-19T00:08:41;15.87;;;10.07;;
8564;SDS011;4320;51.498;6.556;2023-01-19T00:11:09;16.20;;;10.27;;
8564;SDS011;4320;51.498;6.556;2023-01-19T00:13:36;15.33;;;10.83;;
8564;SDS011;4320;51.498;6.556;2023-01-19T00:16:04;14.87;;;9.90;;
8564;SDS011;4320;51.498;6.556;2023-01-19T00:18:31;15.93;;;11.07;;
8564;SDS011;4320;51.498;6.556;2023-01-19T00:20:56;15.47;;;10.70;;
8564;SDS011;4320;51.498;6.556;2023-01-19T00:23:22;16.17;;;10.43;;
8564;SDS011;4320;51.498;6.556;2023-01-19T00:25:48;14.40;;;10.10;;
8564;SDS011;4320;51.498;6.556;2023-01-19T00:28:15;15.50;;;10.17;;
8564;SDS011;4320;51.498;6.556;2023-01-19T00:30:42;15.07;;;10.40;;
8564;SDS011;4320;51.498;6.556;2023-01-19T00:33:08;17.17;;;11.40;;
8564;SDS011;4320;51.498;6.556;2023-01-19T00:35:35;14.60;;;10.23;;
8564;SDS011;4320;51.498;6.556;2023-01-19T00:38:01;15.23;;;11.13;;
8564;SDS011;4320;51.498;6.556;2023-01-19T00:40:27;16.17;;;11.10;;
8564;SDS011;4320;51.498;6.556;2023-01-19T00:42:53;16.80;;;11.67;;
8564;SDS011;4320;51.498;6.556;2023-01-19T00:45:20;14.67;;;11.00;;
8564;SDS011;4320;51.498;6.556;2023-01-19T00:47:48;16.37;;;10.20;;
8564;SDS011;4320;51.498;6.556;2023-01-19T00:50:18;17.80;;;11.60;;
8564;SDS011;4320;51.498;6.556;2023-01-19T00:52:44;20.57;;;11.70;;
8564;SDS011;4320;51.498;6.556;2023-01-19T00:55:11;14.57;;;11.03;;
8564;SDS011;4320;51.498;6.556;2023-01-19T00:57:38;16.77;;;10.67;;
8564;SDS011;4320;51.498;6.556;2023-01-19T01:00:05;15.17;;;11.23;;
8564;SDS011;4320;51.498;6.556;2023-01-19T01:02:33;14.00;;;9.87;;
8564;SDS011;4320;51.498;6.556;2023-01-19T01:04:59;14.47;;;10.57;;
8564;SDS011;4320;51.498;6.556;2023-01-19T01:07:27;17.77;;;10.67;;
8564;SDS011;4320;51.498;6.556;2023-01-19T01:09:53;13.27;;;9.83;;
8564;SDS011;4320;51.498;6.556;2023-01-19T01:12:20;19.07;;;11.43;;
8564;SDS011;4320;51.498;6.556;2023-01-19T01:14:46;15.07;;;10.30;;
8564;SDS011;4320;51.498;6.556;2023-01-19T01:17:12;16.07;;;10.10;;
8564;SDS011;4320;51.498;6.556;2023-01-19T01:19:38;14.00;;;10.60;;
8564;SDS011;4320;51.498;6.556;2023-01-19T01:22:04;13.57;;;10.40;;
8564;SDS011;4320;51.498;6.556;2023-01-19T01:24:30;14.20;;;10.33;;
8564;SDS011;4320;51.498;6.556;2023-01-19T01:26:56;16.50;;;10.67;;
8564;SDS011;4320;51.498;6.556;2023-01-19T01:29:22;17.60;;;11.13;;
8564;SDS011;4320;51.498;6.556;2023-01-19T01:31:48;15.70;;;10.57;;
8564;SDS011;4320;51.498;6.556;2023-01-19T01:34:13;14.40;;;10.20;;
8564;SDS011;4320;51.498;6.556;2023-01-19T01:36:39;15.50;;;9.97;;
8564;SDS011;4320;51.498;6.556;2023-01-19T01:39:04;16.23;;;9.93;;
8564;SDS011;4320;51.498;6.556;2023-01-19T01:41:30;14.73;;;9.77;;
8564;SDS011;4320;51.498;6.556;2023-01-19T01:43:57;17.33;;;10.57;;
8564;SDS011;4320;51.498;6.556;2023-01-19T01:46:26;15.03;;;9.97;;
8564;SDS011;4320;51.498;6.556;2023-01-19T01:48:59;13.30;;;9.60;;
8564;SDS011;4320;51.498;6.556;2023-01-19T01:51:46;17.53;;;10.23;;
8564;SDS011;4320;51.498;6.556;2023-01-19T01:54:19;14.73;;;9.87;;
8564;SDS011;4320;51.498;6.556;2023-01-19T01:56:50;18.47;;;9.43;;
8564;SDS011;4320;51.498;6.556;2023-01-19T01:59:21;14.37;;;9.33;;
8564;SDS011;4320;51.498;6.556;2023-01-19T02:01:56;15.70;;;9.53;;
8564;SDS011;4320;51.498;6.556;2023-01-19T02:04:49;14.33;;;9.33;;
8564;SDS011;4320;51.498;6.556;2023-01-19T02:07:32;19.77;;;9.43;;
8564;SDS011;4320;51.498;6.556;2023-01-19T02:10:21;14.67;;;9.40;;
8564;SDS011;4320;51.498;6.556;2023-01-19T02:13:05;14.63;;;8.70;;
8564;SDS011;4320;51.498;6.556;2023-01-19T02:15:41;16.90;;;10.07;;
8564;SDS011;4320;51.498;6.556;2023-01-19T02:18:06;17.30;;;10.27;;
8564;SDS011;4320;51.498;6.556;2023-01-19T02:20:32;13.70;;;9.60;;
8564;SDS011;4320;51.498;6.556;2023-01-19T02:23:02;13.37;;;9.53;;
8564;SDS011;4320;51.498;6.556;2023-01-19T02:25:33;14.43;;;9.53;;
8564;SDS011;4320;51.498;6.556;2023-01-19T02:27:58;13.60;;;9.90;;
8564;SDS011;4320;51.498;6.556;2023-01-19T02:30:25;15.10;;;10.07;;
8564;SDS011;4320;51.498;6.556;2023-01-19T02:32:51;14.80;;;11.07;;
8564;SDS011;4320;51.498;6.556;2023-01-19T02:35:17;16.73;;;11.17;;
8564;SDS011;4320;51.498;6.556;2023-01-19T02:37:44;14.73;;;10.40;;
8564;SDS011;4320;51.498;6.556;2023-01-19T02:40:11;17.83;;;11.23;;
8564;SDS011;4320;51.498;6.556;2023-01-19T02:42:43;16.47;;;10.10;;
8564;SDS011;4320;51.498;6.556;2023-01-19T02:45:13;15.53;;;10.53;;
8564;SDS011;4320;51.498;6.556;2023-01-19T02:47:48;17.90;;;11.07;;
8564;SDS011;4320;51.498;6.556;2023-01-19T02:53:20;17.00;;;11.57;;
8564;SDS011;4320;51.498;6.556;2023-01-19T03:01:32;14.30;;;9.57;;
8564;SDS011;4320;51.498;6.556;2023-01-19T03:05:07;16.07;;;10.47;;
8564;SDS011;4320;51.498;6.556;2023-01-19T03:12:34;16.30;;;9.37;;
8564;SDS011;4320;51.498;6.556;2023-01-19T03:15:12;15.30;;;10.23;;
8564;SDS011;4320;51.498;6.556;2023-01-19T03:17:44;14.80;;;9.50;;
8564;SDS011;4320;51.498;6.556;2023-01-19T03:20:12;17.97;;;10.20;;
8564;SDS011;4320;51.498;6.556;2023-01-19T03:22:40;14.97;;;9.70;;
8564;SDS011;4320;51.498;6.556;2023-01-19T03:25:07;16.80;;;9.93;;
8564;SDS011;4320;51.498;6.556;2023-01-19T03:27:35;14.13;;;9.97;;
8564;SDS011;4320;51.498;6.556;2023-01-19T03:30:08;17.77;;;10.17;;
8564;SDS011;4320;51.498;6.556;2023-01-19T03:32:42;15.27;;;9.70;;
8564;SDS011;4320;51.498;6.556;2023-01-19T03:35:12;19.10;;;10.23;;
8564;SDS011;4320;51.498;6.556;2023-01-19T03:37:41;13.37;;;9.83;;
8564;SDS011;4320;51.498;6.556;2023-01-19T03:40:10;14.00;;;9.60;;
8564;SDS011;4320;51.498;6.556;2023-01-19T03:42:36;16.07;;;10.00;;
8564;SDS011;4320;51.498;6.556;2023-01-19T03:45:04;13.60;;;8.83;;
8564;SDS011;4320;51.498;6.556;2023-01-19T03:47:31;15.47;;;10.23;;
8564;SDS011;4320;51.498;6.556;2023-01-19T03:49:57;17.70;;;11.20;;
8564;SDS011;4320;51.498;6.556;2023-01-19T03:52:28;17.77;;;10.37;;
8564;SDS011;4320;51.498;6.556;2023-01-19T03:54:56;16.37;;;10.17;;
8564;SDS011;4320;51.498;6.556;2023-01-19T03:57:22;16.93;;;10.53;;
8564;SDS011;4320;51.498;6.556;2023-01-19T03:59:47;15.33;;;9.93;;
8564;SDS011;4320;51.498;6.556;2023-01-19T04:02:13;20.53;;;10.93;;
8564;SDS011;4320;51.498;6.556;2023-01-19T04:04:39;17.43;;;11.30;;
8564;SDS011;4320;51.498;6.556;2023-01-19T04:07:04;19.33;;;11.57;;
8564;SDS011;4320;51.498;6.556;2023-01-19T04:09:30;17.70;;;10.37;;
8564;SDS011;4320;51.498;6.556;2023-01-19T04:11:56;18.37;;;12.07;;
8564;SDS011;4320;51.498;6.556;2023-01-19T04:14:22;15.60;;;10.20;;
8564;SDS011;4320;51.498;6.556;2023-01-19T04:16:47;17.97;;;10.87;;
8564;SDS011;4320;51.498;6.556;2023-01-19T04:19:13;16.80;;;11.20;;
8564;SDS011;4320;51.498;6.556;2023-01-19T04:21:39;21.17;;;12.07;;
8564;SDS011;4320;51.498;6.556;2023-01-19T04:24:04;18.67;;;11.37;;
8564;SDS011;4320;51.498;6.556;2023-01-19T04:26:30;18.97;;;12.20;;
8564;SDS011;4320;51.498;6.556;2023-01-19T04:28:56;19.00;;;11.40;;
8564;SDS011;4320;51.498;6.556;2023-01-19T04:31:22;20.87;;;11.87;;
8564;SDS011;4320;51.498;6.556;2023-01-19T04:33:48;20.50;;;12.13;;
8564;SDS011;4320;51.498;6.556;2023-01-19T04:36:13;19.67;;;11.70;;
8564;SDS011;4320;51.498;6.556;2023-01-19T04:38:39;21.53;;;13.00;;
8564;SDS011;4320;51.498;6.556;2023-01-19T04:41:04;19.53;;;11.17;;
8564;SDS011;4320;51.498;6.556;2023-01-19T04:43:30;17.87;;;10.37;;
8564;SDS011;4320;51.498;6.556;2023-01-19T04:45:56;20.37;;;11.43;;
8564;SDS011;4320;51.498;6.556;2023-01-19T04:48:22;18.23;;;11.27;;
8564;SDS011;4320;51.498;6.556;2023-01-19T04:50:49;16.13;;;11.40;;
8564;SDS011;4320;51.498;6.556;2023-01-19T04:53:15;19.43;;;11.47;;
8564;SDS011;4320;51.498;6.556;2023-01-19T04:55:42;19.13;;;11.07;;
8564;SDS011;4320;51.498;6.556;2023-01-19T04:58:08;17.80;;;11.20;;
8564;SDS011;4320;51.498;6.556;2023-01-19T05:00:34;17.27;;;10.43;;
8564;SDS011;4320;51.498;6.556;2023-01-19T05:03:01;15.83;;;9.73;;
8564;SDS011;4320;51.498;6.556;2023-01-19T05:05:27;15.77;;;9.70;;
8564;SDS011;4320;51.498;6.556;2023-01-19T05:07:53;17.83;;;10.67;;
8564;SDS011;4320;51.498;6.556;2023-01-19T05:10:19;14.37;;;9.60;;
8564;SDS011;4320;51.498;6.556;2023-01-19T05:12:44;14.87;;;10.60;;
8564;SDS011;4320;51.498;6.556;2023-01-19T05:15:10;15.33;;;9.90;;
8564;SDS011;4320;51.498;6.556;2023-01-19T05:17:36;17.83;;;10.87;;
8564;SDS011;4320;51.498;6.556;2023-01-19T05:20:02;14.17;;;10.03;;
8564;SDS011;4320;51.498;6.556;2023-01-19T05:22:28;16.23;;;10.63;;
8564;SDS011;4320;51.498;6.556;2023-01-19T05:24:53;15.47;;;9.23;;
8564;SDS011;4320;51.498;6.556;2023-01-19T05:27:19;14.67;;;10.53;;
8564;SDS011;4320;51.498;6.556;2023-01-19T05:29:45;14.03;;;9.07;;
8564;SDS011;4320;51.498;6.556;2023-01-19T05:32:10;16.30;;;10.60;;
8564;SDS011;4320;51.498;6.556;2023-01-19T05:34:37;14.33;;;9.47;;
8564;SDS011;4320;51.498;6.556;2023-01-19T05:37:03;15.37;;;9.53;;
8564;SDS011;4320;51.498;6.556;2023-01-19T05:39:29;12.07;;;8.23;;
8564;SDS011;4320;51.498;6.556;2023-01-19T05:41:55;13.77;;;9.43;;
8564;SDS011;4320;51.498;6.556;2023-01-19T05:44:20;10.87;;;7.47;;
8564;SDS011;4320;51.498;6.556;2023-01-19T05:46:46;10.03;;;8.13;;
8564;SDS011;4320;51.498;6.556;2023-01-19T05:49:12;14.17;;;8.00;;
8564;SDS011;4320;51.498;6.556;2023-01-19T05:51:38;14.10;;;8.50;;
8564;SDS011;4320;51.498;6.556;2023-01-19T05:54:04;10.07;;;8.20;;
8564;SDS011;4320;51.498;6.556;2023-01-19T05:56:31;12.13;;;8.30;;
8564;SDS011;4320;51.498;6.556;2023-01-19T05:58:57;9.93;;;7.53;;
8564;SDS011;4320;51.498;6.556;2023-01-19T06:01:24;10.90;;;7.80;;
8564;SDS011;4320;51.498;6.556;2023-01-19T06:03:49;9.90;;;7.63;;
8564;SDS011;4320;51.498;6.556;2023-01-19T06:06:15;10.97;;;7.77;;
8564;SDS011;4320;51.498;6.556;2023-01-19T06:08:41;9.57;;;7.23;;
8564;SDS011;4320;51.498;6.556;2023-01-19T06:11:07;11.07;;;7.57;;
8564;SDS011;4320;51.498;6.556;2023-01-19T06:13:33;9.70;;;7.13;;
8564;SDS011;4320;51.498;6.556;2023-01-19T06:15:59;11.00;;;7.47;;
8564;SDS011;4320;51.498;6.556;2023-01-19T06:18:26;8.80;;;7.27;;
8564;SDS011;4320;51.498;6.556;2023-01-19T06:20:52;8.17;;;6.40;;
8564;SDS011;4320;51.498;6.556;2023-01-19T06:23:29;9.80;;;6.83;;
8564;SDS011;4320;51.498;6.556;2023-01-19T06:25:56;8.53;;;6.47;;
8564;SDS011;4320;51.498;6.556;2023-01-19T06:28:22;9.17;;;7.10;;
8564;SDS011;4320;51.498;6.556;2023-01-19T06:54:15;9.80;;;7.80;;
8564;SDS011;4320;51.498;6.556;2023-01-19T06:56:41;10.87;;;8.33;;
8564;SDS011;4320;51.498;6.556;2023-01-19T06:59:06;8.93;;;7.27;;
8564;SDS011;4320;51.498;6.556;2023-01-19T07:01:33;9.83;;;7.60;;
8564;SDS011;4320;51.498;6.556;2023-01-19T07:03:59;12.20;;;7.80;;
8564;SDS011;4320;51.498;6.556;2023-01-19T07:06:25;11.67;;;8.13;;
8564;SDS011;4320;51.498;6.556;2023-01-19T07:08:51;11.70;;;7.53;;
8564;SDS011;4320;51.498;6.556;2023-01-19T07:11:16;12.07;;;8.13;;
8564;SDS011;4320;51.498;6.556;2023-01-19T07:13:42;14.67;;;9.50;;
8564;SDS011;4320;51.498;6.556;2023-01-19T07:16:11;12.80;;;9.90;;
8564;SDS011;4320;51.498;6.556;2023-01-19T07:18:38;14.20;;;8.40;;
8564;SDS011;4320;51.498;6.556;2023-01-19T07:21:05;12.40;;;8.50;;
8564;SDS011;4320;51.498;6.556;2023-01-19T07:23:31;13.13;;;9.60;;
8564;SDS011;4320;51.498;6.556;2023-01-19T07:25:57;14.43;;;9.33;;
8564;SDS011;4320;51.498;6.556;2023-01-19T07:28:27;12.23;;;9.17;;
8564;SDS011;4320;51.498;6.556;2023-01-19T07:30:54;15.97;;;9.47;;
8564;SDS011;4320;51.498;6.556;2023-01-19T07:33:20;13.30;;;9.30;;
8564;SDS011;4320;51.498;6.556;2023-01-19T07:35:49;12.23;;;8.70;;
8564;SDS011;4320;51.498;6.556;2023-01-19T07:38:16;15.03;;;10.00;;
8564;SDS011;4320;51.498;6.556;2023-01-19T07:40:42;16.57;;;10.50;;
8564;SDS011;4320;51.498;6.556;2023-01-19T07:43:08;12.23;;;9.07;;
8564;SDS011;4320;51.498;6.556;2023-01-19T07:45:34;14.83;;;9.47;;
8564;SDS011;4320;51.498;6.556;2023-01-19T07:48:00;16.60;;;9.77;;
8564;SDS011;4320;51.498;6.556;2023-01-19T07:50:26;13.07;;;8.77;;
8564;SDS011;4320;51.498;6.556;2023-01-19T07:52:53;14.03;;;9.63;;
8564;SDS011;4320;51.498;6.556;2023-01-19T07:55:21;11.80;;;8.70;;
8564;SDS011;4320;51.498;6.556;2023-01-19T07:57:48;15.70;;;10.17;;
8564;SDS011;4320;51.498;6.556;2023-01-19T08:00:17;16.93;;;11.13;;
8564;SDS011;4320;51.498;6.556;2023-01-19T08:02:49;15.20;;;10.37;;
8564;SDS011;4320;51.498;6.556;2023-01-19T08:05:16;16.33;;;10.90;;
8564;SDS011;4320;51.498;6.556;2023-01-19T08:07:43;14.47;;;11.07;;
8564;SDS011;4320;51.498;6.556;2023-01-19T08:10:10;17.13;;;11.47;;
8564;SDS011;4320;51.498;6.556;2023-01-19T08:12:39;17.37;;;12.17;;
8564;SDS011;4320;51.498;6.556;2023-01-19T08:15:06;19.27;;;12.00;;
8564;SDS011;4320;51.498;6.556;2023-01-19T08:17:33;16.00;;;11.20;;
8564;SDS011;4320;51.498;6.556;2023-01-19T08:19:59;20.83;;;14.50;;
8564;SDS011;4320;51.498;6.556;2023-01-19T08:22:25;17.97;;;14.00;;
8564;SDS011;4320;51.498;6.556;2023-01-19T08:24:50;23.93;;;13.47;;
8564;SDS011;4320;51.498;6.556;2023-01-19T08:27:17;21.27;;;12.87;;
8564;SDS011;4320;51.498;6.556;2023-01-19T08:29:42;19.30;;;13.43;;
8564;SDS011;4320;51.498;6.556;2023-01-19T08:32:08;22.43;;;15.37;;
8564;SDS011;4320;51.498;6.556;2023-01-19T08:34:33;18.53;;;13.87;;
8564;SDS011;4320;51.498;6.556;2023-01-19T08:36:59;18.93;;;13.50;;
8564;SDS011;4320;51.498;6.556;2023-01-19T08:39:25;18.50;;;13.80;;
8564;SDS011;4320;51.498;6.556;2023-01-19T08:41:51;19.90;;;13.97;;
8564;SDS011;4320;51.498;6.556;2023-01-19T08:44:17;19.03;;;13.87;;
8564;SDS011;4320;51.498;6.556;2023-01-19T08:46:43;18.10;;;13.67;;
8564;SDS011;4320;51.498;6.556;2023-01-19T08:49:09;26.90;;;14.73;;
8564;SDS011;4320;51.498;6.556;2023-01-19T08:51:35;19.07;;;12.67;;
8564;SDS011;4320;51.498;6.556;2023-01-19T08:54:00;21.30;;;13.87;;
8564;SDS011;4320;51.498;6.556;2023-01-19T08:56:26;19.70;;;12.73;;
8564;SDS011;4320;51.498;6.556;2023-01-19T08:58:52;20.43;;;13.27;;
8564;SDS011;4320;51.498;6.556;2023-01-19T09:01:17;20.20;;;14.40;;
8564;SDS011;4320;51.498;6.556;2023-01-19T09:03:44;18.00;;;13.00;;
8564;SDS011;4320;51.498;6.556;2023-01-19T09:06:11;22.57;;;14.30;;
8564;SDS011;4320;51.498;6.556;2023-01-19T09:08:38;22.73;;;13.60;;
8564;SDS011;4320;51.498;6.556;2023-01-19T09:11:07;20.27;;;13.93;;
8564;SDS011;4320;51.498;6.556;2023-01-19T09:13:35;22.27;;;14.10;;
8564;SDS011;4320;51.498;6.556;2023-01-19T09:16:01;25.00;;;15.93;;
8564;SDS011;4320;51.498;6.556;2023-01-19T09:18:27;24.47;;;15.57;;
8564;SDS011;4320;51.498;6.556;2023-01-19T09:20:55;24.33;;;15.03;;
8564;SDS011;4320;51.498;6.556;2023-01-19T09:23:21;24.90;;;14.13;;
8564;SDS011;4320;51.498;6.556;2023-01-19T09:25:47;25.40;;;15.37;;
8564;SDS011;4320;51.498;6.556;2023-01-19T09:28:14;22.17;;;15.00;;
8564;SDS011;4320;51.498;6.556;2023-01-19T09:30:41;24.00;;;15.93;;
8564;SDS011;4320;51.498;6.556;2023-01-19T09:33:09;24.77;;;15.50;;
8564;SDS011;4320;51.498;6.556;2023-01-19T09:35:36;28.00;;;16.10;;
8564;SDS011;4320;51.498;6.556;2023-01-19T09:38:03;23.30;;;15.50;;
8564;SDS011;4320;51.498;6.556;2023-01-19T09:40:31;27.47;;;16.17;;
8564;SDS011;4320;51.498;6.556;2023-01-19T09:43:05;25.77;;;14.73;;
8564;SDS011;4320;51.498;6.556;2023-01-19T09:45:58;25.87;;;16.23;;
8564;SDS011;4320;51.498;6.556;2023-01-19T09:51:11;30.03;;;18.20;;
8564;SDS011;4320;51.498;6.556;2023-01-19T09:53:51;30.77;;;19.13;;
8564;SDS011;4320;51.498;6.556;2023-01-19T09:56:21;24.43;;;15.20;;
8564;SDS011;4320;51.498;6.556;2023-01-19T09:58:48;35.20;;;17.30;;
8564;SDS011;4320;51.498;6.556;2023-01-19T10:06:32;31.33;;;17.10;;
8564;SDS011;4320;51.498;6.556;2023-01-19T10:09:05;30.17;;;18.30;;
8564;SDS011;4320;51.498;6.556;2023-01-19T10:11:41;31.90;;;16.57;;
8564;SDS011;4320;51.498;6.556;2023-01-19T10:14:18;26.27;;;15.63;;
8564;SDS011;4320;51.498;6.556;2023-01-19T10:16:51;32.40;;;16.90;;
8564;SDS011;4320;51.498;6.556;2023-01-19T10:19:28;33.43;;;18.43;;
8564;SDS011;4320;51.498;6.556;2023-01-19T10:21:57;28.53;;;17.30;;
8564;SDS011;4320;51.498;6.556;2023-01-19T10:24:40;31.80;;;17.60;;
8564;SDS011;4320;51.498;6.556;2023-01-19T10:27:15;30.37;;;15.63;;
8564;SDS011;4320;51.498;6.556;2023-01-19T10:29:42;26.43;;;16.27;;
8564;SDS011;4320;51.498;6.556;2023-01-19T10:32:16;29.80;;;16.63;;
8564;SDS011;4320;51.498;6.556;2023-01-19T10:34:48;28.27;;;15.40;;
8564;SDS011;4320;51.498;6.556;2023-01-19T10:42:36;38.00;;;16.77;;
8564;SDS011;4320;51.498;6.556;2023-01-19T10:45:13;32.00;;;17.23;;
8564;SDS011;4320;51.498;6.556;2023-01-19T10:47:40;37.10;;;17.33;;
8564;SDS011;4320;51.498;6.556;2023-01-19T10:52:57;30.27;;;17.63;;
8564;SDS011;4320;51.498;6.556;2023-01-19T10:55:25;32.00;;;17.70;;
8564;SDS011;4320;51.498;6.556;2023-01-19T10:57:51;37.83;;;17.90;;
8564;SDS011;4320;51.498;6.556;2023-01-19T11:00:39;38.00;;;17.77;;
8564;SDS011;4320;51.498;6.556;2023-01-19T11:03:22;39.80;;;18.57;;
8564;SDS011;4320;51.498;6.556;2023-01-19T11:05:51;35.40;;;18.37;;
8564;SDS011;4320;51.498;6.556;2023-01-19T11:08:21;35.70;;;18.43;;
8564;SDS011;4320;51.498;6.556;2023-01-19T11:10:51;32.63;;;18.93;;
8564;SDS011;4320;51.498;6.556;2023-01-19T11:13:29;34.77;;;17.83;;
8564;SDS011;4320;51.498;6.556;2023-01-19T11:16:05;35.20;;;18.43;;
8564;SDS011;4320;51.498;6.556;2023-01-19T11:18:39;39.97;;;20.47;;
8564;SDS011;4320;51.498;6.556;2023-01-19T11:21:13;41.03;;;18.30;;
8564;SDS011;4320;51.498;6.556;2023-01-19T11:26:24;31.10;;;19.13;;
8564;SDS011;4320;51.498;6.556;2023-01-19T11:28:51;35.17;;;19.00;;
8564;SDS011;4320;51.498;6.556;2023-01-19T11:34:04;38.07;;;20.53;;
8564;SDS011;4320;51.498;6.556;2023-01-19T11:37:00;34.83;;;18.73;;
8564;SDS011;4320;51.498;6.556;2023-01-19T11:39:46;35.53;;;19.97;;
8564;SDS011;4320;51.498;6.556;2023-01-19T11:42:13;34.73;;;19.40;;
8564;SDS011;4320;51.498;6.556;2023-01-19T11:44:46;33.13;;;19.17;;
8564;SDS011;4320;51.498;6.556;2023-01-19T11:47:24;34.97;;;19.77;;
8564;SDS011;4320;51.498;6.556;2023-01-19T11:52:47;46.70;;;20.03;;
8564;SDS011;4320;51.498;6.556;2023-01-19T11:57:51;31.10;;;19.27;;
8564;SDS011;4320;51.498;6.556;2023-01-19T12:00:31;35.63;;;18.80;;
8564;SDS011;4320;51.498;6.556;2023-01-19T12:05:40;34.33;;;18.10;;
8564;SDS011;4320;51.498;6.556;2023-01-19T12:08:32;34.73;;;19.50;;
8564;SDS011;4320;51.498;6.556;2023-01-19T12:11:00;29.33;;;15.57;;
8564;SDS011;4320;51.498;6.556;2023-01-19T12:13:28;31.43;;;16.57;;
8564;SDS011;4320;51.498;6.556;2023-01-19T12:16:00;36.87;;;18.40;;
8564;SDS011;4320;51.498;6.556;2023-01-19T12:18:28;32.33;;;17.73;;
8564;SDS011;4320;51.498;6.556;2023-01-19T12:21:03;34.03;;;17.83;;
8564;SDS011;4320;51.498;6.556;2023-01-19T12:26:07;27.10;;;17.13;;
8564;SDS011;4320;51.498;6.556;2023-01-19T12:28:41;29.90;;;16.73;;
8564;SDS011;4320;51.498;6.556;2023-01-19T12:31:12;32.23;;;17.30;;
8564;SDS011;4320;51.498;6.556;2023-01-19T12:33:40;27.10;;;16.07;;
8564;SDS011;4320;51.498;6.556;2023-01-19T12:41:35;29.93;;;16.43;;
8564;SDS011;4320;51.498;6.556;2023-01-19T12:46:34;32.67;;;15.77;;
8564;SDS011;4320;51.498;6.556;2023-01-19T12:49:16;34.73;;;19.17;;
8564;SDS011;4320;51.498;6.556;2023-01-19T12:51:43;27.90;;;15.27;;
8564;SDS011;4320;51.498;6.556;2023-01-19T12:54:15;29.48;;;15.40;;
8564;SDS011;4320;51.498;6.556;2023-01-19T12:56:57;28.25;;;14.95;;
8564;SDS011;4320;51.498;6.556;2023-01-19T12:59:26;27.55;;;16.02;;
8564;SDS011;4320;51.498;6.556;2023-01-19T13:13:28;25.13;;;13.75;;
8564;SDS011;4320;51.498;6.556;2023-01-19T13:15:55;21.83;;;12.02;;
8564;SDS011;4320;51.498;6.556;2023-01-19T13:18:53;23.67;;;12.27;;
8564;SDS011;4320;51.498;6.556;2023-01-19T13:21:33;19.23;;;12.20;;
8564;SDS011;4320;51.498;6.556;2023-01-19T13:24:00;28.38;;;12.48;;
8564;SDS011;4320;51.498;6.556;2023-01-19T13:26:32;19.80;;;10.88;;
8564;SDS011;4320;51.498;6.556;2023-01-19T13:29:02;17.65;;;10.52;;
8564;SDS011;4320;51.498;6.556;2023-01-19T13:31:35;21.70;;;12.63;;
8564;SDS011;4320;51.498;6.556;2023-01-19T13:34:03;18.40;;;12.67;;
8564;SDS011;4320;51.498;6.556;2023-01-19T13:36:53;18.63;;;11.50;;
8564;SDS011;4320;51.498;6.556;2023-01-19T13:39:26;21.40;;;12.73;;
8564;SDS011;4320;51.498;6.556;2023-01-19T13:42:04;24.83;;;12.90;;
8564;SDS011;4320;51.498;6.556;2023-01-19T13:44:57;23.03;;;11.83;;
8564;SDS011;4320;51.498;6.556;2023-01-19T13:47:41;21.50;;;12.70;;
8564;SDS011;4320;51.498;6.556;2023-01-19T13:50:17;23.13;;;12.00;;
8564;SDS011;4320;51.498;6.556;2023-01-19T13:52:48;17.03;;;12.10;;
8564;SDS011;4320;51.498;6.556;2023-01-19T13:55:18;21.90;;;12.10;;
8564;SDS011;4320;51.498;6.556;2023-01-19T13:57:45;24.67;;;12.23;;
8564;SDS011;4320;51.498;6.556;2023-01-19T14:00:20;20.60;;;12.87;;
8564;SDS011;4320;51.498;6.556;2023-01-19T14:02:58;22.83;;;12.77;;
8564;SDS011;4320;51.498;6.556;2023-01-19T14:08:10;21.17;;;12.20;;
8564;SDS011;4320;51.498;6.556;2023-01-19T14:13:21;23.77;;;12.97;;
8564;SDS011;4320;51.498;6.556;2023-01-19T14:15:57;21.80;;;12.67;;
8564;SDS011;4320;51.498;6.556;2023-01-19T14:18:31;24.47;;;13.40;;
8564;SDS011;4320;51.498;6.556;2023-01-19T14:21:01;25.30;;;12.83;;
8564;SDS011;4320;51.498;6.556;2023-01-19T14:34:40;21.57;;;12.67;;
8564;SDS011;4320;51.498;6.556;2023-01-19T14:37:25;22.70;;;13.17;;
8564;SDS011;4320;51.498;6.556;2023-01-19T14:39:54;25.10;;;12.93;;
8564;SDS011;4320;51.498;6.556;2023-01-19T14:42:43;21.17;;;12.30;;
8564;SDS011;4320;51.498;6.556;2023-01-19T14:45:34;22.20;;;13.20;;
8564;SDS011;4320;51.498;6.556;2023-01-19T14:48:13;26.90;;;12.90;;
8564;SDS011;4320;51.498;6.556;2023-01-19T14:50:41;22.37;;;13.57;;
8564;SDS011;4320;51.498;6.556;2023-01-19T14:53:15;26.47;;;12.27;;
8564;SDS011;4320;51.498;6.556;2023-01-19T14:58:15;18.03;;;11.83;;
8564;SDS011;4320;51.498;6.556;2023-01-19T15:00:42;27.67;;;14.13;;
8564;SDS011;4320;51.498;6.556;2023-01-19T15:03:09;20.90;;;11.57;;
8564;SDS011;4320;51.498;6.556;2023-01-19T15:05:38;22.53;;;12.17;;
8564;SDS011;4320;51.498;6.556;2023-01-19T15:08:06;19.57;;;11.37;;
8564;SDS011;4320;51.498;6.556;2023-01-19T15:10:36;22.63;;;11.80;;
8564;SDS011;4320;51.498;6.556;2023-01-19T15:13:02;22.83;;;12.13;;
8564;SDS011;4320;51.498;6.556;2023-01-19T15:15:32;23.03;;;11.97;;
8564;SDS011;4320;51.498;6.556;2023-01-19T15:17:59;18.23;;;11.40;;
8564;SDS011;4320;51.498;6.556;2023-01-19T15:20:27;19.80;;;11.47;;
8564;SDS011;4320;51.498;6.556;2023-01-19T15:22:53;17.90;;;10.97;;
8564;SDS011;4320;51.498;6.556;2023-01-19T15:25:19;17.87;;;10.43;;
8564;SDS011;4320;51.498;6.556;2023-01-19T15:27:51;21.33;;;11.70;;
8564;SDS011;4320;51.498;6.556;2023-01-19T15:30:22;22.83;;;11.87;;
8564;SDS011;4320;51.498;6.556;2023-01-19T15:32:49;19.30;;;12.27;;
8564;SDS011;4320;51.498;6.556;2023-01-19T15:35:16;24.07;;;11.43;;
8564;SDS011;4320;51.498;6.556;2023-01-19T15:37:43;22.90;;;11.57;;
8564;SDS011;4320;51.498;6.556;2023-01-19T15:40:09;19.47;;;12.07;;
8564;SDS011;4320;51.498;6.556;2023-01-19T15:42:35;20.17;;;12.50;;
8564;SDS011;4320;51.498;6.556;2023-01-19T15:45:01;20.83;;;11.57;;
8564;SDS011;4320;51.498;6.556;2023-01-19T15:47:27;19.77;;;10.97;;
8564;SDS011;4320;51.498;6.556;2023-01-19T15:49:52;21.13;;;11.33;;
8564;SDS011;4320;51.498;6.556;2023-01-19T15:52:18;19.50;;;11.20;;
8564;SDS011;4320;51.498;6.556;2023-01-19T15:54:44;26.30;;;11.53;;
8564;SDS011;4320;51.498;6.556;2023-01-19T15:57:10;19.77;;;11.43;;
8564;SDS011;4320;51.498;6.556;2023-01-19T15:59:35;16.70;;;10.77;;
8564;SDS011;4320;51.498;6.556;2023-01-19T16:02:01;21.10;;;11.47;;
8564;SDS011;4320;51.498;6.556;2023-01-19T16:04:27;19.47;;;11.43;;
8564;SDS011;4320;51.498;6.556;2023-01-19T16:06:53;21.77;;;11.87;;
8564;SDS011;4320;51.498;6.556;2023-01-19T16:09:18;22.97;;;10.80;;
8564;SDS011;4320;51.498;6.556;2023-01-19T16:11:44;21.97;;;11.60;;
8564;SDS011;4320;51.498;6.556;2023-01-19T16:14:10;17.17;;;10.93;;
8564;SDS011;4320;51.498;6.556;2023-01-19T16:16:36;19.50;;;12.20;;
8564;SDS011;4320;51.498;6.556;2023-01-19T16:19:02;29.47;;;17.53;;
8564;SDS011;4320;51.498;6.556;2023-01-19T16:21:28;26.13;;;14.27;;
8564;SDS011;4320;51.498;6.556;2023-01-19T16:23:53;24.50;;;13.60;;
8564;SDS011;4320;51.498;6.556;2023-01-19T16:29:00;22.50;;;11.73;;
8564;SDS011;4320;51.498;6.556;2023-01-19T16:31:31;21.20;;;11.57;;
8564;SDS011;4320;51.498;6.556;2023-01-19T16:33:57;23.27;;;12.90;;
8564;SDS011;4320;51.498;6.556;2023-01-19T16:36:26;26.60;;;13.90;;
8564;SDS011;4320;51.498;6.556;2023-01-19T16:38:56;24.33;;;12.60;;
8564;SDS011;4320;51.498;6.556;2023-01-19T16:41:23;24.57;;;13.03;;
8564;SDS011;4320;51.498;6.556;2023-01-19T16:43:49;23.10;;;12.23;;
8564;SDS011;4320;51.498;6.556;2023-01-19T16:46:20;25.93;;;13.90;;
8564;SDS011;4320;51.498;6.556;2023-01-19T16:48:47;23.97;;;11.60;;
8564;SDS011;4320;51.498;6.556;2023-01-19T16:51:14;22.53;;;12.60;;
8564;SDS011;4320;51.498;6.556;2023-01-19T16:53:40;22.53;;;12.87;;